createdAt,value
2019-01-23T00:00:52.136Z,-1.01
2019-01-23T00:03:19.407Z,-0.92
2019-01-23T00:05:46.709Z,-0.87
2019-01-23T00:08:13.923Z,-0.86
2019-01-23T00:10:41.415Z,-0.93
2019-01-23T00:13:08.680Z,-0.98
2019-01-23T00:15:35.858Z,-0.86
2019-01-23T00:18:03.154Z,-0.79
2019-01-23T00:20:30.225Z,-0.77
2019-01-23T00:22:57.554Z,-0.66
2019-01-23T00:25:24.813Z,-0.77
2019-01-23T00:27:51.920Z,-0.84
2019-01-23T00:30:19.138Z,-0.85
2019-01-23T00:32:46.268Z,-0.87
2019-01-23T00:35:13.454Z,-0.83
2019-01-23T00:37:40.657Z,-0.87
2019-01-23T00:40:08.726Z,-0.85
2019-01-23T00:42:35.885Z,-0.92
2019-01-23T00:45:04.466Z,-0.91
2019-01-23T00:47:31.685Z,-0.83
2019-01-23T00:49:59.280Z,-0.86
2019-01-23T00:52:26.776Z,-0.81
2019-01-23T00:54:53.913Z,-0.67
2019-01-23T00:57:21.080Z,-0.73
2019-01-23T00:59:48.254Z,-0.70
2019-01-23T01:02:15.713Z,-0.79
2019-01-23T01:04:42.860Z,-0.77
2019-01-23T01:07:10.036Z,-0.79
2019-01-23T01:09:37.156Z,-0.81
2019-01-23T01:12:04.365Z,-0.78
2019-01-23T01:14:31.432Z,-0.65
2019-01-23T01:16:58.641Z,-0.72
2019-01-23T01:19:25.899Z,-0.62
2019-01-23T01:21:53.091Z,-0.74
2019-01-23T01:24:20.301Z,-0.70
2019-01-23T01:26:47.513Z,-0.66
2019-01-23T01:29:14.704Z,-0.79
2019-01-23T01:31:41.964Z,-0.77
2019-01-23T01:34:09.137Z,-0.62
2019-01-23T01:36:36.303Z,-0.70
2019-01-23T01:39:07.122Z,-0.68
2019-01-23T01:41:34.301Z,-0.58
2019-01-23T01:44:01.463Z,-0.65
2019-01-23T01:46:28.681Z,-0.69
2019-01-23T01:48:55.824Z,-0.62
2019-01-23T01:51:22.983Z,-0.54
2019-01-23T01:53:50.179Z,-0.66
2019-01-23T01:56:17.248Z,-0.70
2019-01-23T01:58:44.421Z,-0.63
2019-01-23T02:01:11.669Z,-0.57
2019-01-23T02:03:38.830Z,-0.63
2019-01-23T02:06:05.882Z,-0.62
2019-01-23T02:08:33.116Z,-0.50
2019-01-23T02:11:00.312Z,-0.49
2019-01-23T02:13:27.482Z,-0.44
2019-01-23T02:15:54.684Z,-0.45
2019-01-23T02:18:21.855Z,-0.50
2019-01-23T02:20:48.948Z,-0.43
2019-01-23T02:23:16.433Z,-0.41
2019-01-23T02:25:43.600Z,-0.49
2019-01-23T02:28:10.797Z,-0.60
2019-01-23T02:30:38.042Z,-0.61
2019-01-23T02:33:05.139Z,-0.55
2019-01-23T02:35:32.232Z,-0.57
2019-01-23T02:37:59.345Z,-0.59
2019-01-23T02:40:26.877Z,-0.62
2019-01-23T02:42:54.376Z,-0.58
2019-01-23T02:45:22.552Z,-0.55
2019-01-23T02:47:49.635Z,-0.49
2019-01-23T02:50:16.823Z,-0.39
2019-01-23T02:52:44.057Z,-0.48
2019-01-23T02:55:11.223Z,-0.49
2019-01-23T02:57:38.413Z,-0.49
2019-01-23T03:00:08.244Z,-0.45
2019-01-23T03:02:35.795Z,-0.40
2019-01-23T03:05:04.436Z,-0.44
2019-01-23T03:07:31.660Z,-0.46
2019-01-23T03:09:58.825Z,-0.52
2019-01-23T03:12:26.026Z,-0.37
2019-01-23T03:14:53.398Z,-0.47
2019-01-23T03:17:20.560Z,-0.54
2019-01-23T03:19:47.733Z,-0.47
2019-01-23T03:22:14.951Z,-0.51
2019-01-23T03:24:42.113Z,-0.35
2019-01-23T03:27:09.586Z,-0.41
2019-01-23T03:29:36.840Z,-0.42
2019-01-23T03:32:04.009Z,-0.46
2019-01-23T03:34:31.181Z,-0.53
2019-01-23T03:36:58.379Z,-0.48
2019-01-23T03:39:25.601Z,-0.50
2019-01-23T03:41:52.744Z,-0.53
2019-01-23T03:44:20.269Z,-0.40
2019-01-23T03:46:47.468Z,-0.49
2019-01-23T03:49:14.981Z,-0.43
2019-01-23T03:51:42.178Z,-0.40
2019-01-23T03:54:09.700Z,-0.47
2019-01-23T03:56:36.905Z,-0.53
2019-01-23T03:59:04.138Z,-0.54
2019-01-23T04:01:31.550Z,-0.62
2019-01-23T04:03:58.734Z,-0.67
2019-01-23T04:06:26.030Z,-0.62
2019-01-23T04:08:53.198Z,-0.61
2019-01-23T04:11:20.396Z,-0.64
2019-01-23T04:13:47.575Z,-0.60
2019-01-23T04:16:14.811Z,-0.47
2019-01-23T04:18:42.082Z,-0.47
2019-01-23T04:21:09.194Z,-0.60
2019-01-23T04:23:36.504Z,-0.63
2019-01-23T04:26:03.977Z,-0.53
2019-01-23T04:28:31.167Z,-0.61
2019-01-23T04:30:58.365Z,-0.59
2019-01-23T04:33:25.527Z,-0.69
2019-01-23T04:35:52.627Z,-0.65
2019-01-23T04:38:19.685Z,-0.68
2019-01-23T04:40:46.885Z,-0.67
2019-01-23T04:43:13.979Z,-0.70
2019-01-23T04:45:41.183Z,-0.71
2019-01-23T04:48:08.275Z,-0.61
2019-01-23T04:51:15.049Z,-0.62
2019-01-23T04:53:44.727Z,-0.64
2019-01-23T04:56:11.802Z,-0.39
2019-01-23T04:58:39.033Z,-0.46
2019-01-23T05:01:06.192Z,-0.51
2019-01-23T05:03:33.387Z,-0.52
2019-01-23T05:06:00.543Z,-0.60
2019-01-23T05:08:27.736Z,-0.61
2019-01-23T05:10:54.910Z,-0.58
2019-01-23T05:13:22.128Z,-0.45
2019-01-23T05:15:49.322Z,-0.58
2019-01-23T05:18:16.516Z,-0.58
2019-01-23T05:20:44.004Z,-0.70
2019-01-23T05:23:11.197Z,-0.70
2019-01-23T05:25:38.607Z,-0.57
2019-01-23T05:28:05.893Z,-0.57
2019-01-23T05:30:33.076Z,-0.69
2019-01-23T05:33:00.251Z,-0.59
2019-01-23T05:35:27.666Z,-0.52
2019-01-23T05:37:55.097Z,-0.53
2019-01-23T05:40:22.275Z,-0.64
2019-01-23T05:42:49.483Z,-0.64
2019-01-23T05:45:16.644Z,-0.54
2019-01-23T05:47:44.073Z,-0.49
2019-01-23T05:50:13.942Z,-0.58
2019-01-23T05:52:41.216Z,-0.66
2019-01-23T05:55:09.340Z,-0.59
2019-01-23T05:57:36.602Z,-0.52
2019-01-23T06:00:05.551Z,-0.56
2019-01-23T06:02:32.815Z,-0.66
2019-01-23T06:05:00.347Z,-0.73
2019-01-23T06:07:27.536Z,-0.53
2019-01-23T06:09:54.728Z,-0.55
2019-01-23T06:12:21.932Z,-0.66
2019-01-23T06:14:49.166Z,-0.70
2019-01-23T06:17:16.287Z,-0.72
2019-01-23T06:19:43.476Z,-0.73
2019-01-23T06:22:10.608Z,-0.73
2019-01-23T06:24:37.678Z,-0.78
2019-01-23T06:27:04.910Z,-0.64
2019-01-23T06:29:32.086Z,-0.54
2019-01-23T06:31:59.629Z,-0.50
2019-01-23T06:34:26.794Z,-0.59
2019-01-23T06:36:54.334Z,-0.72
2019-01-23T06:39:21.503Z,-0.73
2019-01-23T06:41:49.046Z,-0.73
2019-01-23T06:44:16.195Z,-0.63
2019-01-23T06:46:43.371Z,-0.51
2019-01-23T06:49:10.572Z,-0.62
2019-01-23T06:51:37.773Z,-0.54
2019-01-23T06:54:04.931Z,-0.56
2019-01-23T06:56:32.121Z,-0.68
2019-01-23T06:58:59.243Z,-0.79
2019-01-23T07:01:26.410Z,-0.74
2019-01-23T07:03:53.911Z,-0.77
2019-01-23T07:06:21.096Z,-0.72
2019-01-23T07:08:48.545Z,-0.68
2019-01-23T07:11:15.773Z,-0.70
2019-01-23T07:13:43.305Z,-0.77
2019-01-23T07:16:10.488Z,-0.86
2019-01-23T07:18:37.709Z,-0.79
2019-01-23T07:21:04.860Z,-0.72
2019-01-23T07:23:32.073Z,-0.87
2019-01-23T07:25:59.346Z,-0.83
2019-01-23T07:28:26.548Z,-0.81
2019-01-23T07:30:53.753Z,-0.81
2019-01-23T07:33:21.102Z,-0.87
2019-01-23T07:35:48.328Z,-0.89
2019-01-23T07:38:15.497Z,-0.91
2019-01-23T07:40:42.623Z,-0.81
2019-01-23T07:43:10.118Z,-0.86
2019-01-23T07:45:37.221Z,-0.81
2019-01-23T07:48:04.341Z,-0.73
2019-01-23T07:50:31.421Z,-0.81
2019-01-23T07:52:58.821Z,-0.80
2019-01-23T07:55:26.074Z,-0.67
2019-01-23T07:57:53.577Z,-0.65
2019-01-23T08:00:21.793Z,-0.73
2019-01-23T08:02:49.301Z,-0.77
2019-01-23T08:05:19.653Z,-0.76
2019-01-23T08:07:46.970Z,-0.63
2019-01-23T08:10:15.254Z,-0.51
2019-01-23T08:12:42.862Z,-0.59
2019-01-23T08:15:24.381Z,-0.49
2019-01-23T08:17:51.446Z,-0.45
2019-01-23T08:20:19.193Z,-0.40
2019-01-23T08:22:46.336Z,-0.47
2019-01-23T08:25:14.564Z,-0.48
2019-01-23T08:27:41.692Z,-0.34
2019-01-23T08:30:09.172Z,-0.20
2019-01-23T08:32:36.380Z,-0.18
2019-01-23T08:35:04.437Z,-0.18
2019-01-23T08:37:31.640Z,-0.21
2019-01-23T08:39:59.072Z,-0.22
2019-01-23T08:42:26.493Z,-0.24
2019-01-23T08:44:53.717Z,-0.23
2019-01-23T08:47:21.275Z,-0.15
2019-01-23T08:49:48.464Z,-0.02
2019-01-23T08:52:15.713Z,-0.01
2019-01-23T08:54:43.185Z,0.00
2019-01-23T08:57:10.409Z,0.01
2019-01-23T08:59:37.748Z,0.04
2019-01-23T09:02:04.970Z,0.18
2019-01-23T09:04:32.157Z,0.32
2019-01-23T09:06:59.415Z,0.42
2019-01-23T09:09:26.725Z,0.48
2019-01-23T09:11:53.969Z,0.56
2019-01-23T09:14:21.261Z,0.73
2019-01-23T09:16:48.478Z,0.72
2019-01-23T09:19:15.656Z,0.66
2019-01-23T09:21:42.891Z,0.59
2019-01-23T09:24:11.161Z,0.63
2019-01-23T09:26:38.491Z,0.55
2019-01-23T09:29:05.805Z,0.57
2019-01-23T09:32:17.343Z,0.59
2019-01-23T09:35:21.000Z,0.59
2019-01-23T09:38:14.322Z,0.73
2019-01-23T09:41:14.207Z,0.61
2019-01-23T09:44:20.257Z,0.51
2019-01-23T09:47:13.019Z,0.48
2019-01-23T09:49:47.421Z,0.43
2019-01-23T09:52:44.112Z,0.31
2019-01-23T09:55:12.291Z,0.36
2019-01-23T09:57:49.244Z,0.40
2019-01-23T10:00:19.547Z,0.40
2019-01-23T10:02:46.730Z,0.47
2019-01-23T10:05:14.246Z,0.48
2019-01-23T10:07:41.463Z,0.52
2019-01-23T10:10:10.492Z,0.60
2019-01-23T10:12:37.700Z,0.82
2019-01-23T10:15:09.196Z,0.92
2019-01-23T10:17:37.490Z,0.97
2019-01-23T10:20:05.117Z,1.03
2019-01-23T10:22:32.592Z,1.10
2019-01-23T10:24:59.796Z,1.07
2019-01-23T10:27:26.952Z,0.99
2019-01-23T10:29:54.130Z,0.95
2019-01-23T10:32:21.326Z,0.99
2019-01-23T10:34:48.579Z,0.93
2019-01-23T10:37:19.644Z,0.94
2019-01-23T10:39:45.162Z,0.85
2019-01-23T10:42:12.355Z,0.86
2019-01-23T10:44:39.572Z,0.87
2019-01-23T10:47:06.774Z,0.87
2019-01-23T10:49:33.979Z,0.74
2019-01-23T10:52:01.145Z,0.65
2019-01-23T10:54:28.402Z,0.52
2019-01-23T10:56:56.163Z,0.47
2019-01-23T10:59:23.536Z,0.64
2019-01-23T11:01:50.708Z,0.61
2019-01-23T11:04:18.136Z,0.47
2019-01-23T11:06:45.427Z,0.50
2019-01-23T11:09:12.538Z,0.68
2019-01-23T11:11:39.735Z,0.70
2019-01-23T11:14:06.941Z,0.61
2019-01-23T11:16:34.171Z,0.60
2019-01-23T11:19:01.403Z,0.50
2019-01-23T11:21:28.640Z,0.51
2019-01-23T11:23:55.698Z,0.54
2019-01-23T11:26:23.089Z,0.57
2019-01-23T11:28:50.280Z,0.51
2019-01-23T11:31:20.523Z,0.50
2019-01-23T11:33:47.963Z,0.59
2019-01-23T11:36:15.205Z,0.57
2019-01-23T11:38:45.292Z,0.56
2019-01-23T11:41:12.510Z,0.51
2019-01-23T11:43:39.985Z,0.56
2019-01-23T11:46:07.105Z,0.60
2019-01-23T11:48:34.558Z,0.58
2019-01-23T11:51:01.838Z,0.54
2019-01-23T11:53:29.039Z,0.39
2019-01-23T11:55:56.248Z,0.39
2019-01-23T11:58:23.430Z,0.42
2019-01-23T12:00:50.671Z,0.44
2019-01-23T12:03:21.024Z,0.45
2019-01-23T12:05:47.365Z,0.64
2019-01-23T12:08:14.810Z,0.68
2019-01-23T12:10:42.412Z,0.57
2019-01-23T12:13:09.561Z,0.64
2019-01-23T12:15:40.840Z,0.73
2019-01-23T12:18:06.064Z,0.80
2019-01-23T12:20:33.572Z,0.85
2019-01-23T12:23:00.811Z,0.99
2019-01-23T12:25:28.039Z,0.82
2019-01-23T12:27:55.215Z,0.68
2019-01-23T12:30:25.472Z,0.58
2019-01-23T12:32:58.521Z,0.47
2019-01-23T12:35:25.949Z,0.26
2019-01-23T12:37:58.058Z,0.22
2019-01-23T12:40:27.684Z,0.24
2019-01-23T12:42:55.015Z,0.20
2019-01-23T12:45:24.345Z,0.20
2019-01-23T12:47:51.452Z,0.14
2019-01-23T12:50:21.473Z,0.09
2019-01-23T12:52:48.753Z,0.15
2019-01-23T12:55:16.051Z,0.25
2019-01-23T12:57:43.572Z,0.37
2019-01-23T13:00:14.560Z,0.17
2019-01-23T13:02:41.848Z,0.06
2019-01-23T13:05:10.171Z,0.02
2019-01-23T13:07:37.445Z,0.08
2019-01-23T13:10:10.269Z,0.09
2019-01-23T13:12:37.462Z,0.11
2019-01-23T13:15:05.507Z,0.14
2019-01-23T13:17:32.803Z,0.07
2019-01-23T13:19:59.873Z,0.13
2019-01-23T13:22:28.292Z,0.20
2019-01-23T13:24:55.417Z,0.25
2019-01-23T13:27:22.600Z,0.20
2019-01-23T13:29:49.831Z,0.15
2019-01-23T13:32:17.016Z,0.18
2019-01-23T13:34:44.267Z,0.28
2019-01-23T13:37:11.647Z,0.42
2019-01-23T13:39:38.864Z,0.39
2019-01-23T13:42:06.029Z,0.32
2019-01-23T13:44:33.261Z,0.19
2019-01-23T13:47:00.530Z,0.07
2019-01-23T13:49:27.699Z,-0.07
2019-01-23T13:51:54.906Z,-0.04
2019-01-23T13:54:22.118Z,0.05
2019-01-23T13:56:49.319Z,0.15
2019-01-23T13:59:16.649Z,0.06
2019-01-23T14:01:44.054Z,0.19
2019-01-23T14:04:11.315Z,0.15
2019-01-23T14:06:38.420Z,0.03
2019-01-23T14:09:07.019Z,0.11
2019-01-23T14:11:34.541Z,0.03
2019-01-23T14:14:01.751Z,0.02
2019-01-23T14:16:28.975Z,0.00
2019-01-23T14:18:56.147Z,0.01
2019-01-23T14:21:23.344Z,0.00
2019-01-23T14:23:50.568Z,0.06
2019-01-23T14:26:17.759Z,0.08
2019-01-23T14:28:45.151Z,0.06
2019-01-23T14:31:12.414Z,0.05
2019-01-23T14:33:39.604Z,0.09
2019-01-23T14:36:06.767Z,0.05
2019-01-23T14:38:33.975Z,-0.05
2019-01-23T14:41:01.168Z,0.00
2019-01-23T14:43:28.304Z,0.03
2019-01-23T14:45:55.490Z,0.08
2019-01-23T14:48:22.713Z,0.12
2019-01-23T14:50:49.819Z,-0.02
2019-01-23T14:53:17.013Z,-0.03
2019-01-23T14:55:44.207Z,-0.10
2019-01-23T14:58:11.437Z,-0.13
2019-01-23T15:00:38.613Z,-0.14
2019-01-23T15:03:05.836Z,-0.21
2019-01-23T15:05:32.959Z,-0.15
2019-01-23T15:08:00.308Z,-0.18
2019-01-23T15:10:28.929Z,-0.12
2019-01-23T15:12:56.200Z,-0.05
2019-01-23T15:15:23.565Z,0.04
2019-01-23T15:17:50.793Z,0.02
2019-01-23T15:20:26.308Z,0.04
2019-01-23T15:22:53.504Z,0.10
2019-01-23T15:25:20.729Z,0.10
2019-01-23T15:27:47.972Z,0.12
2019-01-23T15:30:16.715Z,0.09
2019-01-23T15:32:43.889Z,-0.01
2019-01-23T15:35:11.130Z,-0.01
2019-01-23T15:37:38.300Z,0.03
2019-01-23T15:40:07.293Z,-0.06
2019-01-23T15:42:34.543Z,-0.03
2019-01-23T15:45:01.726Z,-0.13
2019-01-23T15:47:31.174Z,-0.12
2019-01-23T15:49:59.081Z,-0.09
2019-01-23T15:52:26.789Z,-0.15
2019-01-23T15:54:56.719Z,-0.20
2019-01-23T15:57:23.951Z,-0.22
2019-01-23T15:59:51.235Z,-0.16
2019-01-23T16:02:24.286Z,-0.16
2019-01-23T16:04:47.556Z,-0.17
2019-01-23T16:07:15.111Z,-0.18
2019-01-23T16:09:42.288Z,-0.13
2019-01-23T16:12:09.462Z,-0.22
2019-01-23T16:14:36.696Z,-0.25
2019-01-23T16:17:03.836Z,-0.23
2019-01-23T16:19:31.219Z,-0.21
2019-01-23T16:21:58.435Z,-0.24
2019-01-23T16:24:25.611Z,-0.25
2019-01-23T16:26:52.887Z,-0.34
2019-01-23T16:29:20.101Z,-0.40
2019-01-23T16:31:47.821Z,-0.35
2019-01-23T16:34:15.066Z,-0.26
2019-01-23T16:36:42.312Z,-0.24
2019-01-23T16:39:09.676Z,-0.29
2019-01-23T16:41:36.877Z,-0.36
2019-01-23T16:44:04.450Z,-0.40
2019-01-23T16:46:31.695Z,-0.36
2019-01-23T16:48:58.919Z,-0.34
2019-01-23T16:51:34.000Z,-0.27
2019-01-23T16:54:01.531Z,-0.30
2019-01-23T16:56:28.747Z,-0.23
2019-01-23T16:58:55.876Z,-0.33
2019-01-23T17:01:23.138Z,-0.36
2019-01-23T17:03:50.235Z,-0.26
2019-01-23T17:06:17.566Z,-0.25
2019-01-23T17:08:45.063Z,-0.33
2019-01-23T17:11:12.348Z,-0.34
2019-01-23T17:13:39.661Z,-0.30
2019-01-23T17:16:07.007Z,-0.19
2019-01-23T17:18:34.226Z,-0.27
2019-01-23T17:21:01.329Z,-0.24
2019-01-23T17:23:28.545Z,-0.25
2019-01-23T17:25:55.793Z,-0.38
2019-01-23T17:28:23.001Z,-0.40
2019-01-23T17:30:52.971Z,-0.35
2019-01-23T17:33:23.226Z,-0.40
2019-01-23T17:35:50.802Z,-0.25
2019-01-23T17:38:17.997Z,-0.26
2019-01-23T17:40:45.509Z,-0.30
2019-01-23T17:43:14.936Z,-0.24
2019-01-23T17:45:42.087Z,-0.32
2019-01-23T17:48:11.214Z,-0.29
2019-01-23T17:50:38.435Z,-0.25
2019-01-23T17:53:05.895Z,-0.28
2019-01-23T17:55:34.848Z,-0.29
2019-01-23T17:58:02.337Z,-0.23
2019-01-23T18:00:33.441Z,-0.21
2019-01-23T18:03:00.921Z,-0.18
2019-01-23T18:05:28.188Z,-0.16
2019-01-23T18:07:55.549Z,-0.14
2019-01-23T18:10:22.895Z,-0.07
2019-01-23T18:12:50.149Z,-0.02
2019-01-23T18:15:19.088Z,-0.04
2019-01-23T18:17:46.605Z,-0.05
2019-01-23T18:20:16.452Z,-0.02
2019-01-23T18:22:43.729Z,-0.01
2019-01-23T18:25:11.350Z,-0.07
2019-01-23T18:27:38.508Z,-0.13
2019-01-23T18:30:11.157Z,-0.14
2019-01-23T18:32:39.983Z,-0.06
2019-01-23T18:35:45.420Z,-0.06
2019-01-23T18:38:22.931Z,-0.15
2019-01-23T18:41:47.055Z,-0.18
2019-01-23T18:44:48.398Z,-0.27
2019-01-23T18:47:56.054Z,-0.25
2019-01-23T18:51:16.763Z,-0.26
2019-01-23T18:53:44.242Z,-0.32
2019-01-23T18:56:11.546Z,-0.25
2019-01-23T18:58:38.652Z,-0.22
2019-01-23T19:01:06.289Z,-0.29
2019-01-23T19:03:33.480Z,-0.27
2019-01-23T19:06:00.580Z,-0.28
2019-01-23T19:08:27.850Z,-0.27
2019-01-23T19:10:55.090Z,-0.39
2019-01-23T19:13:22.237Z,-0.40
2019-01-23T19:15:49.450Z,-0.39
2019-01-23T19:18:16.683Z,-0.39
2019-01-23T19:20:43.817Z,-0.33
2019-01-23T19:23:11.058Z,-0.34
2019-01-23T19:25:38.243Z,-0.36
2019-01-23T19:28:05.754Z,-0.39
2019-01-23T19:30:32.945Z,-0.34
2019-01-23T19:33:00.305Z,-0.31
2019-01-23T19:35:27.745Z,-0.19
2019-01-23T19:37:55.048Z,-0.23
2019-01-23T19:40:22.419Z,-0.27
2019-01-23T19:42:49.675Z,-0.30
2019-01-23T19:45:18.884Z,-0.35
2019-01-23T19:47:46.260Z,-0.32
2019-01-23T19:50:13.753Z,-0.31
2019-01-23T19:52:41.275Z,-0.25
2019-01-23T19:55:09.857Z,-0.29
2019-01-23T19:57:37.063Z,-0.39
2019-01-23T20:00:06.649Z,-0.40
2019-01-23T20:02:33.881Z,-0.37
2019-01-23T20:05:01.105Z,-0.28
2019-01-23T20:07:28.313Z,-0.30
2019-01-23T20:09:55.531Z,-0.25
2019-01-23T20:12:22.704Z,-0.16
2019-01-23T20:14:49.935Z,-0.17
2019-01-23T20:17:17.008Z,-0.13
2019-01-23T20:19:44.171Z,-0.23
2019-01-23T20:22:11.275Z,-0.31
2019-01-23T20:24:38.503Z,-0.32
2019-01-23T20:27:05.718Z,-0.36
2019-01-23T20:29:32.965Z,-0.36
2019-01-23T20:32:00.220Z,-0.30
2019-01-23T20:34:27.462Z,-0.29
2019-01-23T20:36:54.678Z,-0.38
2019-01-23T20:39:21.905Z,-0.48
2019-01-23T20:41:49.168Z,-0.48
2019-01-23T20:44:16.742Z,-0.55
2019-01-23T20:46:43.928Z,-0.51
2019-01-23T20:49:11.146Z,-0.45
2019-01-23T20:51:38.398Z,-0.37
2019-01-23T20:54:05.619Z,-0.41
2019-01-23T20:56:32.816Z,-0.41
2019-01-23T20:59:00.269Z,-0.38
2019-01-23T21:01:27.513Z,-0.33
2019-01-23T21:03:54.917Z,-0.33
2019-01-23T21:06:22.134Z,-0.30
2019-01-23T21:08:49.351Z,-0.26
2019-01-23T21:11:16.573Z,-0.25
2019-01-23T21:13:44.099Z,-0.26
2019-01-23T21:16:11.273Z,-0.33
2019-01-23T21:18:38.467Z,-0.38
2019-01-23T21:21:05.662Z,-0.29
2019-01-23T21:23:33.161Z,-0.30
2019-01-23T21:26:00.344Z,-0.29
2019-01-23T21:28:27.641Z,-0.32
2019-01-23T21:30:55.791Z,-0.33
2019-01-23T21:33:23.113Z,-0.29
2019-01-23T21:35:50.407Z,-0.37
2019-01-23T21:38:17.667Z,-0.42
2019-01-23T21:40:44.800Z,-0.42
2019-01-23T21:43:12.061Z,-0.39
2019-01-23T21:45:39.192Z,-0.40
2019-01-23T21:48:06.436Z,-0.34
2019-01-23T21:50:33.854Z,-0.33
2019-01-23T21:53:01.134Z,-0.33
2019-01-23T21:55:28.427Z,-0.34
2019-01-23T21:57:55.695Z,-0.29
2019-01-23T22:00:25.631Z,-0.28
2019-01-23T22:02:53.797Z,-0.31
2019-01-23T22:05:21.391Z,-0.29
2019-01-23T22:07:48.584Z,-0.29
2019-01-23T22:10:15.833Z,-0.22
2019-01-23T22:12:43.089Z,-0.35
2019-01-23T22:15:12.283Z,-0.40
2019-01-23T22:17:39.448Z,-0.36
2019-01-23T22:20:09.755Z,-0.27
2019-01-23T22:22:36.942Z,-0.24
2019-01-23T22:25:04.615Z,-0.26
2019-01-23T22:27:32.080Z,-0.31
2019-01-23T22:29:59.259Z,-0.37
2019-01-23T22:32:26.438Z,-0.33
2019-01-23T22:34:53.657Z,-0.28
2019-01-23T22:37:21.209Z,-0.24
2019-01-23T22:39:48.370Z,-0.21
2019-01-23T22:42:15.678Z,-0.16
2019-01-23T22:44:43.902Z,-0.14
2019-01-23T22:47:11.686Z,-0.14
2019-01-23T22:49:38.866Z,-0.18
2019-01-23T22:52:06.024Z,-0.27
2019-01-23T22:54:33.101Z,-0.37
2019-01-23T22:57:00.327Z,-0.28
2019-01-23T22:59:27.525Z,-0.33
2019-01-23T23:01:54.720Z,-0.39
2019-01-23T23:04:21.948Z,-0.41
2019-01-23T23:06:49.120Z,-0.36
2019-01-23T23:09:16.220Z,-0.39
2019-01-23T23:11:43.418Z,-0.41
2019-01-23T23:14:10.963Z,-0.45
2019-01-23T23:16:38.160Z,-0.50
2019-01-23T23:19:05.448Z,-0.44
2019-01-23T23:21:32.641Z,-0.47
2019-01-23T23:23:59.860Z,-0.48
2019-01-23T23:26:27.086Z,-0.45
2019-01-23T23:28:54.799Z,-0.42
2019-01-23T23:31:22.028Z,-0.37
2019-01-23T23:33:49.261Z,-0.36
2019-01-23T23:36:16.448Z,-0.45
2019-01-23T23:38:43.695Z,-0.47
2019-01-23T23:41:10.889Z,-0.53
2019-01-23T23:43:38.059Z,-0.57
2019-01-23T23:46:05.517Z,-0.60
2019-01-23T23:48:32.715Z,-0.65
2019-01-23T23:50:59.770Z,-0.66
2019-01-23T23:53:26.921Z,-0.64
2019-01-23T23:55:54.406Z,-0.57
2019-01-23T23:58:21.576Z,-0.59
